sensor_id;sensor_type;location;lat;lon;timestamp;pressure;altitude;pressure_sealevel;temperature;humidity
45323;BME280;31382;50.200;8.674;2024-02-26T00:00:59;98602.53;;;9.35;56.38
45323;BME280;31382;50.200;8.674;2024-02-26T00:06:01;98598.19;;;9.33;56.70
45323;BME280;31382;50.200;8.674;2024-02-26T00:11:04;98587.91;;;9.30;57.01
45323;BME280;31382;50.200;8.674;2024-02-26T00:16:10;98591.19;;;9.32;56.40
45323;BME280;31382;50.200;8.674;2024-02-26T00:21:12;98584.25;;;9.11;57.09
45323;BME280;31382;50.200;8.674;2024-02-26T00:26:14;98587.28;;;9.28;56.74
45323;BME280;31382;50.200;8.674;2024-02-26T00:31:19;98584.97;;;9.39;56.82
45323;BME280;31382;50.200;8.674;2024-02-26T00:36:20;98571.56;;;9.39;56.74
45323;BME280;31382;50.200;8.674;2024-02-26T00:41:22;98570.34;;;9.35;56.86
45323;BME280;31382;50.200;8.674;2024-02-26T00:46:24;98568.69;;;9.40;57.11
45323;BME280;31382;50.200;8.674;2024-02-26T00:51:26;98546.19;;;9.41;56.80
45323;BME280;31382;50.200;8.674;2024-02-26T00:56:28;98545.38;;;9.41;56.84
45323;BME280;31382;50.200;8.674;2024-02-26T01:01:30;98548.91;;;9.35;57.28
45323;BME280;31382;50.200;8.674;2024-02-26T01:06:31;98554.28;;;9.35;57.35
45323;BME280;31382;50.200;8.674;2024-02-26T01:11:33;98564.56;;;9.38;57.09
45323;BME280;31382;50.200;8.674;2024-02-26T01:16:35;98535.25;;;9.43;57.17
45323;BME280;31382;50.200;8.674;2024-02-26T01:21:36;98527.66;;;9.33;57.50
45323;BME280;31382;50.200;8.674;2024-02-26T01:26:38;98513.06;;;9.22;57.60
45323;BME280;31382;50.200;8.674;2024-02-26T01:31:40;98531.84;;;9.16;57.92
45323;BME280;31382;50.200;8.674;2024-02-26T01:36:42;98522.78;;;9.10;57.71
45323;BME280;31382;50.200;8.674;2024-02-26T01:41:45;98526.53;;;9.09;57.91
45323;BME280;31382;50.200;8.674;2024-02-26T01:46:47;98523.59;;;9.17;57.73
45323;BME280;31382;50.200;8.674;2024-02-26T01:51:49;98531.59;;;9.24;57.52
45323;BME280;31382;50.200;8.674;2024-02-26T01:56:51;98524.41;;;9.24;57.76
45323;BME280;31382;50.200;8.674;2024-02-26T02:01:57;98554.50;;;9.20;57.51
45323;BME280;31382;50.200;8.674;2024-02-26T02:07:00;98558.28;;;9.05;57.92
45323;BME280;31382;50.200;8.674;2024-02-26T02:12:02;98529.59;;;9.12;57.98
45323;BME280;31382;50.200;8.674;2024-02-26T02:17:04;98544.22;;;9.17;57.64
45323;BME280;31382;50.200;8.674;2024-02-26T02:22:06;98523.19;;;9.13;58.10
45323;BME280;31382;50.200;8.674;2024-02-26T02:27:07;98526.53;;;9.02;58.42
45323;BME280;31382;50.200;8.674;2024-02-26T02:32:09;98523.44;;;9.05;58.33
45323;BME280;31382;50.200;8.674;2024-02-26T02:37:11;98563.44;;;9.07;58.26
45323;BME280;31382;50.200;8.674;2024-02-26T02:42:12;98559.97;;;8.86;58.78
45323;BME280;31382;50.200;8.674;2024-02-26T02:47:14;98566.53;;;9.04;58.58
45323;BME280;31382;50.200;8.674;2024-02-26T02:52:15;98569.84;;;8.99;58.51
45323;BME280;31382;50.200;8.674;2024-02-26T02:57:17;98566.09;;;9.13;58.13
45323;BME280;31382;50.200;8.674;2024-02-26T03:02:19;98557.66;;;9.03;58.50
45323;BME280;31382;50.200;8.674;2024-02-26T03:07:20;98560.75;;;9.07;58.31
45323;BME280;31382;50.200;8.674;2024-02-26T03:12:22;98564.00;;;9.16;58.48
45323;BME280;31382;50.200;8.674;2024-02-26T03:17:24;98559.47;;;9.16;58.54
45323;BME280;31382;50.200;8.674;2024-02-26T03:22:26;98570.59;;;9.20;58.32
45323;BME280;31382;50.200;8.674;2024-02-26T03:27:28;98554.97;;;9.10;58.43
45323;BME280;31382;50.200;8.674;2024-02-26T03:32:29;98556.19;;;9.14;58.44
45323;BME280;31382;50.200;8.674;2024-02-26T03:37:31;98559.66;;;9.21;58.14
45323;BME280;31382;50.200;8.674;2024-02-26T03:42:33;98568.34;;;9.10;58.98
45323;BME280;31382;50.200;8.674;2024-02-26T03:47:35;98561.53;;;9.21;58.82
45323;BME280;31382;50.200;8.674;2024-02-26T03:52:36;98573.06;;;9.21;58.70
45323;BME280;31382;50.200;8.674;2024-02-26T03:57:38;98569.22;;;9.10;59.09
45323;BME280;31382;50.200;8.674;2024-02-26T04:02:39;98570.03;;;9.11;59.02
45323;BME280;31382;50.200;8.674;2024-02-26T04:07:41;98564.47;;;8.99;59.34
45323;BME280;31382;50.200;8.674;2024-02-26T04:12:43;98571.47;;;9.07;59.04
45323;BME280;31382;50.200;8.674;2024-02-26T04:17:45;98575.19;;;9.12;59.21
45323;BME280;31382;50.200;8.674;2024-02-26T04:22:47;98576.59;;;9.15;59.29
45323;BME280;31382;50.200;8.674;2024-02-26T04:27:49;98576.41;;;9.17;59.53
45323;BME280;31382;50.200;8.674;2024-02-26T04:32:50;98576.41;;;9.17;59.35
45323;BME280;31382;50.200;8.674;2024-02-26T04:37:52;98577.63;;;9.14;59.79
45323;BME280;31382;50.200;8.674;2024-02-26T04:42:54;98582.19;;;9.00;60.57
45323;BME280;31382;50.200;8.674;2024-02-26T04:47:55;98573.72;;;9.10;60.69
45323;BME280;31382;50.200;8.674;2024-02-26T04:52:57;98576.59;;;9.15;59.94
45323;BME280;31382;50.200;8.674;2024-02-26T04:57:59;98576.00;;;9.13;60.08
45323;BME280;31382;50.200;8.674;2024-02-26T05:03:01;98582.38;;;9.12;60.26
45323;BME280;31382;50.200;8.674;2024-02-26T05:08:03;98595.59;;;9.07;60.36
45323;BME280;31382;50.200;8.674;2024-02-26T05:13:05;98584.88;;;9.07;60.49
45323;BME280;31382;50.200;8.674;2024-02-26T05:18:07;98600.94;;;9.00;60.85
45323;BME280;31382;50.200;8.674;2024-02-26T05:23:09;98600.53;;;9.03;60.68
45323;BME280;31382;50.200;8.674;2024-02-26T05:28:11;98619.34;;;8.97;60.73
45323;BME280;31382;50.200;8.674;2024-02-26T05:33:12;98618.91;;;8.93;61.30
45323;BME280;31382;50.200;8.674;2024-02-26T05:38:18;98609.84;;;8.87;61.72
45323;BME280;31382;50.200;8.674;2024-02-26T05:43:20;98611.72;;;8.67;62.21
45323;BME280;31382;50.200;8.674;2024-02-26T05:48:22;98616.25;;;8.46;62.88
45323;BME280;31382;50.200;8.674;2024-02-26T05:53:24;98617.84;;;8.34;63.64
45323;BME280;31382;50.200;8.674;2024-02-26T05:58:26;98635.56;;;8.22;64.29
45323;BME280;31382;50.200;8.674;2024-02-26T06:03:29;98636.59;;;8.34;64.00
45323;BME280;31382;50.200;8.674;2024-02-26T06:08:31;98635.97;;;8.39;64.37
45323;BME280;31382;50.200;8.674;2024-02-26T06:13:37;98638.66;;;8.32;64.67
45323;BME280;31382;50.200;8.674;2024-02-26T06:18:38;98647.31;;;8.34;64.82
45323;BME280;31382;50.200;8.674;2024-02-26T06:23:40;98644.00;;;8.39;64.98
45323;BME280;31382;50.200;8.674;2024-02-26T06:28:42;98652.25;;;8.30;65.24
45323;BME280;31382;50.200;8.674;2024-02-26T06:33:43;98658.84;;;8.28;65.20
45323;BME280;31382;50.200;8.674;2024-02-26T06:38:45;98671.78;;;8.18;65.96
45323;BME280;31382;50.200;8.674;2024-02-26T06:43:46;98683.50;;;8.10;66.41
45323;BME280;31382;50.200;8.674;2024-02-26T06:48:48;98688.84;;;8.10;66.38
45323;BME280;31382;50.200;8.674;2024-02-26T06:53:55;98695.81;;;8.04;66.61
45323;BME280;31382;50.200;8.674;2024-02-26T06:58:56;98706.72;;;7.96;66.90
45323;BME280;31382;50.200;8.674;2024-02-26T07:03:58;98715.28;;;7.85;67.42
45323;BME280;31382;50.200;8.674;2024-02-26T07:08:59;98723.28;;;7.78;67.98
45323;BME280;31382;50.200;8.674;2024-02-26T07:14:00;98723.06;;;7.73;67.98
45323;BME280;31382;50.200;8.674;2024-02-26T07:19:03;98736.44;;;7.73;68.57
45323;BME280;31382;50.200;8.674;2024-02-26T07:24:04;98730.19;;;7.66;68.88
45323;BME280;31382;50.200;8.674;2024-02-26T07:29:06;98733.63;;;7.53;69.40
45323;BME280;31382;50.200;8.674;2024-02-26T07:34:07;98740.41;;;7.49;70.27
45323;BME280;31382;50.200;8.674;2024-02-26T07:39:10;98735.53;;;7.59;69.51
45323;BME280;31382;50.200;8.674;2024-02-26T07:44:12;98741.75;;;7.66;70.18
45323;BME280;31382;50.200;8.674;2024-02-26T07:55:29;98760.31;;;7.74;71.31
45323;BME280;31382;50.200;8.674;2024-02-26T08:00:30;98745.09;;;7.82;71.00
45323;BME280;31382;50.200;8.674;2024-02-26T08:05:32;98756.69;;;7.89;71.52
45323;BME280;31382;50.200;8.674;2024-02-26T08:10:33;98749.69;;;7.88;71.54
45323;BME280;31382;50.200;8.674;2024-02-26T08:15:35;98762.25;;;7.94;71.59
45323;BME280;31382;50.200;8.674;2024-02-26T08:20:38;98764.16;;;8.00;72.11
45323;BME280;31382;50.200;8.674;2024-02-26T08:25:40;98767.28;;;8.10;71.94
45323;BME280;31382;50.200;8.674;2024-02-26T08:30:41;98775.94;;;8.12;72.54
45323;BME280;31382;50.200;8.674;2024-02-26T08:35:43;98774.31;;;8.18;72.33
45323;BME280;31382;50.200;8.674;2024-02-26T08:40:44;98779.47;;;8.26;72.86
45323;BME280;31382;50.200;8.674;2024-02-26T08:45:45;98780.09;;;8.28;73.14
45323;BME280;31382;50.200;8.674;2024-02-26T08:50:47;98777.88;;;8.39;73.23
45323;BME280;31382;50.200;8.674;2024-02-26T08:55:48;98785.38;;;8.57;73.22
45323;BME280;31382;50.200;8.674;2024-02-26T09:00:50;98777.56;;;8.55;73.24
45323;BME280;31382;50.200;8.674;2024-02-26T09:05:52;98776.34;;;8.58;73.85
45323;BME280;31382;50.200;8.674;2024-02-26T09:10:53;98779.44;;;8.61;73.69
45323;BME280;31382;50.200;8.674;2024-02-26T09:15:54;98781.72;;;8.71;73.75
45323;BME280;31382;50.200;8.674;2024-02-26T09:20:56;98785.69;;;8.95;73.29
45323;BME280;31382;50.200;8.674;2024-02-26T09:25:58;98785.03;;;8.86;73.81
45323;BME280;31382;50.200;8.674;2024-02-26T09:30:59;98792.06;;;8.87;74.04
45323;BME280;31382;50.200;8.674;2024-02-26T09:36:01;98795.78;;;8.93;74.06
45323;BME280;31382;50.200;8.674;2024-02-26T09:41:06;98799.50;;;9.12;73.76
45323;BME280;31382;50.200;8.674;2024-02-26T09:46:08;98789.19;;;9.29;73.80
45323;BME280;31382;50.200;8.674;2024-02-26T09:51:10;98794.97;;;9.52;73.52
45323;BME280;31382;50.200;8.674;2024-02-26T09:56:13;98813.94;;;9.58;73.82
45323;BME280;31382;50.200;8.674;2024-02-26T10:01:17;98804.66;;;9.73;73.71
45323;BME280;31382;50.200;8.674;2024-02-26T10:06:19;98800.69;;;9.89;73.66
45323;BME280;31382;50.200;8.674;2024-02-26T10:11:22;98800.81;;;10.15;73.27
45323;BME280;31382;50.200;8.674;2024-02-26T10:16:28;98786.94;;;10.38;72.98
45323;BME280;31382;50.200;8.674;2024-02-26T10:21:29;98807.91;;;10.61;72.80
45323;BME280;31382;50.200;8.674;2024-02-26T10:26:31;98806.84;;;10.62;73.03
45323;BME280;31382;50.200;8.674;2024-02-26T10:31:32;98815.13;;;10.67;73.19
45323;BME280;31382;50.200;8.674;2024-02-26T10:36:34;98809.34;;;10.63;73.28
45323;BME280;31382;50.200;8.674;2024-02-26T10:41:49;98831.50;;;10.52;73.05
45323;BME280;31382;50.200;8.674;2024-02-26T10:46:51;98825.28;;;10.58;72.84
45323;BME280;31382;50.200;8.674;2024-02-26T10:51:56;98819.91;;;10.58;72.75
45323;BME280;31382;50.200;8.674;2024-02-26T10:57:01;98834.69;;;10.74;72.50
45323;BME280;31382;50.200;8.674;2024-02-26T11:02:04;98846.00;;;10.89;72.21
45323;BME280;31382;50.200;8.674;2024-02-26T11:07:05;98845.94;;;11.03;71.66
45323;BME280;31382;50.200;8.674;2024-02-26T11:12:11;98846.47;;;11.11;71.86
45323;BME280;31382;50.200;8.674;2024-02-26T11:17:15;98853.31;;;11.14;71.25
45323;BME280;31382;50.200;8.674;2024-02-26T11:22:17;98846.25;;;11.20;71.49
45323;BME280;31382;50.200;8.674;2024-02-26T11:27:31;98856.06;;;11.32;70.95
45323;BME280;31382;50.200;8.674;2024-02-26T11:32:34;98854.06;;;11.28;70.73
45323;BME280;31382;50.200;8.674;2024-02-26T11:37:36;98864.59;;;11.55;70.60
45323;BME280;31382;50.200;8.674;2024-02-26T11:42:43;98855.94;;;11.78;70.27
45323;BME280;31382;50.200;8.674;2024-02-26T11:47:56;98858.03;;;12.19;69.42
45323;BME280;31382;50.200;8.674;2024-02-26T11:53:33;98865.00;;;12.27;70.10
45323;BME280;31382;50.200;8.674;2024-02-26T11:58:39;98864.50;;;12.37;70.29
45323;BME280;31382;50.200;8.674;2024-02-26T12:03:40;98861.41;;;12.70;69.53
45323;BME280;31382;50.200;8.674;2024-02-26T12:08:44;98849.91;;;13.23;68.55
45323;BME280;31382;50.200;8.674;2024-02-26T12:13:47;98856.81;;;13.19;69.11
45323;BME280;31382;50.200;8.674;2024-02-26T12:18:50;98859.81;;;13.41;68.33
45323;BME280;31382;50.200;8.674;2024-02-26T12:23:52;98858.22;;;13.99;67.31
45323;BME280;31382;50.200;8.674;2024-02-26T12:28:55;98847.97;;;14.37;66.60
45323;BME280;31382;50.200;8.674;2024-02-26T12:33:56;98854.44;;;14.88;65.75
45323;BME280;31382;50.200;8.674;2024-02-26T12:38:58;98857.41;;;15.32;65.12
45323;BME280;31382;50.200;8.674;2024-02-26T12:44:00;98866.34;;;15.95;63.97
45323;BME280;31382;50.200;8.674;2024-02-26T12:49:02;98872.31;;;16.31;63.71
45323;BME280;31382;50.200;8.674;2024-02-26T12:54:03;98880.31;;;16.04;63.82
45323;BME280;31382;50.200;8.674;2024-02-26T12:59:05;98892.94;;;15.36;65.07
45323;BME280;31382;50.200;8.674;2024-02-26T13:04:07;98889.84;;;15.44;64.31
45323;BME280;31382;50.200;8.674;2024-02-26T13:09:12;98887.97;;;14.99;64.76
45323;BME280;31382;50.200;8.674;2024-02-26T13:14:20;98897.81;;;14.64;64.74
45323;BME280;31382;50.200;8.674;2024-02-26T13:19:22;98905.84;;;15.45;62.95
45323;BME280;31382;50.200;8.674;2024-02-26T13:24:24;98912.00;;;16.20;61.75
45323;BME280;31382;50.200;8.674;2024-02-26T13:29:26;98907.94;;;16.40;61.66
45323;BME280;31382;50.200;8.674;2024-02-26T13:34:29;98914.28;;;16.29;62.28
45323;BME280;31382;50.200;8.674;2024-02-26T13:39:32;98911.78;;;17.05;60.34
45323;BME280;31382;50.200;8.674;2024-02-26T13:44:33;98918.25;;;16.60;61.36
45323;BME280;31382;50.200;8.674;2024-02-26T13:49:38;98918.66;;;16.69;60.86
45323;BME280;31382;50.200;8.674;2024-02-26T13:54:39;98915.97;;;16.91;60.28
45323;BME280;31382;50.200;8.674;2024-02-26T13:59:41;98929.19;;;16.65;60.49
45323;BME280;31382;50.200;8.674;2024-02-26T14:04:43;98922.31;;;17.01;59.29
45323;BME280;31382;50.200;8.674;2024-02-26T14:09:46;98910.66;;;20.74;52.02
45323;BME280;31382;50.200;8.674;2024-02-26T14:14:51;98918.63;;;21.20;52.23
45323;BME280;31382;50.200;8.674;2024-02-26T14:19:55;98928.06;;;20.89;53.40
45323;BME280;31382;50.200;8.674;2024-02-26T14:24:57;98910.03;;;21.87;50.39
45323;BME280;31382;50.200;8.674;2024-02-26T14:29:59;98923.09;;;23.07;48.40
45323;BME280;31382;50.200;8.674;2024-02-26T14:35:00;98935.25;;;21.79;51.05
45323;BME280;31382;50.200;8.674;2024-02-26T14:40:02;98944.50;;;21.38;50.88
45323;BME280;31382;50.200;8.674;2024-02-26T14:45:04;98951.00;;;21.03;51.01
45323;BME280;31382;50.200;8.674;2024-02-26T14:50:08;98960.66;;;20.59;51.65
45323;BME280;31382;50.200;8.674;2024-02-26T14:55:10;98959.34;;;20.00;52.26
45323;BME280;31382;50.200;8.674;2024-02-26T15:00:12;98954.97;;;19.89;51.84
45323;BME280;31382;50.200;8.674;2024-02-26T15:05:13;98975.78;;;19.22;53.02
45323;BME280;31382;50.200;8.674;2024-02-26T15:10:15;98968.75;;;18.78;53.29
45323;BME280;31382;50.200;8.674;2024-02-26T15:15:17;98971.22;;;18.05;54.15
45323;BME280;31382;50.200;8.674;2024-02-26T15:20:18;98966.84;;;17.77;54.52
45323;BME280;31382;50.200;8.674;2024-02-26T15:25:20;98977.84;;;17.11;55.13
45323;BME280;31382;50.200;8.674;2024-02-26T15:30:21;98981.16;;;16.57;56.00
45323;BME280;31382;50.200;8.674;2024-02-26T15:35:23;98990.72;;;16.25;56.06
45323;BME280;31382;50.200;8.674;2024-02-26T15:40:24;98980.44;;;16.28;56.26
45323;BME280;31382;50.200;8.674;2024-02-26T15:45:27;98976.94;;;17.05;55.54
45323;BME280;31382;50.200;8.674;2024-02-26T15:50:33;98980.81;;;17.58;57.78
45323;BME280;31382;50.200;8.674;2024-02-26T15:55:34;98993.47;;;17.48;56.79
45323;BME280;31382;50.200;8.674;2024-02-26T16:00:41;99004.00;;;17.00;56.93
45323;BME280;31382;50.200;8.674;2024-02-26T16:05:44;99011.81;;;16.40;57.79
45323;BME280;31382;50.200;8.674;2024-02-26T16:10:46;99023.41;;;15.73;58.44
45323;BME280;31382;50.200;8.674;2024-02-26T16:15:53;99041.44;;;15.27;58.89
45323;BME280;31382;50.200;8.674;2024-02-26T16:20:59;99050.06;;;14.77;59.71
45323;BME280;31382;50.200;8.674;2024-02-26T16:26:00;99063.31;;;14.55;59.84
45323;BME280;31382;50.200;8.674;2024-02-26T16:31:02;99074.00;;;14.26;60.30
45323;BME280;31382;50.200;8.674;2024-02-26T16:36:04;99077.41;;;13.91;61.05
45323;BME280;31382;50.200;8.674;2024-02-26T16:41:05;99078.44;;;13.60;61.56
45323;BME280;31382;50.200;8.674;2024-02-26T16:46:07;99085.97;;;13.39;62.10
45323;BME280;31382;50.200;8.674;2024-02-26T16:51:08;99083.09;;;13.16;62.55
45323;BME280;31382;50.200;8.674;2024-02-26T16:56:10;99089.94;;;12.93;63.07
45323;BME280;31382;50.200;8.674;2024-02-26T17:01:12;99111.91;;;12.72;63.33
45323;BME280;31382;50.200;8.674;2024-02-26T17:06:13;99116.16;;;12.61;63.81
45323;BME280;31382;50.200;8.674;2024-02-26T17:11:16;99129.34;;;12.44;64.19
45323;BME280;31382;50.200;8.674;2024-02-26T17:16:18;99132.56;;;12.27;64.39
45323;BME280;31382;50.200;8.674;2024-02-26T17:21:20;99139.84;;;12.27;64.17
45323;BME280;31382;50.200;8.674;2024-02-26T17:26:23;99146.50;;;12.24;64.51
45323;BME280;31382;50.200;8.674;2024-02-26T17:31:25;99163.47;;;12.25;64.56
45323;BME280;31382;50.200;8.674;2024-02-26T17:36:26;99166.44;;;12.17;64.49
45323;BME280;31382;50.200;8.674;2024-02-26T17:41:28;99181.59;;;12.11;64.70
45323;BME280;31382;50.200;8.674;2024-02-26T17:46:29;99188.41;;;12.14;65.05
45323;BME280;31382;50.200;8.674;2024-02-26T17:51:31;99182.81;;;12.15;64.68
45323;BME280;31382;50.200;8.674;2024-02-26T17:56:32;99198.38;;;12.06;64.73
45323;BME280;31382;50.200;8.674;2024-02-26T18:01:35;99204.00;;;12.05;65.16
45323;BME280;31382;50.200;8.674;2024-02-26T18:06:36;99208.56;;;11.98;65.24
45323;BME280;31382;50.200;8.674;2024-02-26T18:11:38;99200.91;;;11.88;65.54
45323;BME280;31382;50.200;8.674;2024-02-26T18:16:39;99212.31;;;11.83;64.98
45323;BME280;31382;50.200;8.674;2024-02-26T18:21:41;99212.56;;;11.75;65.33
45323;BME280;31382;50.200;8.674;2024-02-26T18:26:42;99228.50;;;11.70;65.20
45323;BME280;31382;50.200;8.674;2024-02-26T18:31:44;99231.22;;;11.63;64.79
45323;BME280;31382;50.200;8.674;2024-02-26T18:36:46;99234.34;;;11.60;64.79
45323;BME280;31382;50.200;8.674;2024-02-26T18:41:48;99244.28;;;11.53;65.13
45323;BME280;31382;50.200;8.674;2024-02-26T18:46:49;99265.81;;;11.46;64.70
45323;BME280;31382;50.200;8.674;2024-02-26T18:51:51;99271.63;;;11.43;64.48
45323;BME280;31382;50.200;8.674;2024-02-26T18:56:52;99281.16;;;11.46;64.66
45323;BME280;31382;50.200;8.674;2024-02-26T19:01:54;99291.91;;;11.39;64.44
45323;BME280;31382;50.200;8.674;2024-02-26T19:06:55;99299.16;;;11.39;64.54
45323;BME280;31382;50.200;8.674;2024-02-26T19:11:57;99300.78;;;11.33;64.87
45323;BME280;31382;50.200;8.674;2024-02-26T19:16:58;99309.09;;;11.31;64.89
45323;BME280;31382;50.200;8.674;2024-02-26T19:22:00;99316.31;;;11.24;64.94
45323;BME280;31382;50.200;8.674;2024-02-26T19:27:02;99323.56;;;11.17;64.79
45323;BME280;31382;50.200;8.674;2024-02-26T19:32:04;99334.31;;;11.17;64.60
45323;BME280;31382;50.200;8.674;2024-02-26T19:37:06;99335.97;;;11.18;64.95
45323;BME280;31382;50.200;8.674;2024-02-26T19:42:07;99342.59;;;11.16;64.81
45323;BME280;31382;50.200;8.674;2024-02-26T19:47:09;99348.38;;;11.13;64.77
45323;BME280;31382;50.200;8.674;2024-02-26T19:52:10;99356.22;;;11.07;64.59
45323;BME280;31382;50.200;8.674;2024-02-26T19:57:12;99363.66;;;11.05;64.80
45323;BME280;31382;50.200;8.674;2024-02-26T20:02:14;99370.09;;;11.04;65.05
45323;BME280;31382;50.200;8.674;2024-02-26T20:07:15;99384.56;;;11.03;65.13
45323;BME280;31382;50.200;8.674;2024-02-26T20:12:18;99394.88;;;11.00;64.92
45323;BME280;31382;50.200;8.674;2024-02-26T20:17:19;99398.00;;;10.97;64.96
45323;BME280;31382;50.200;8.674;2024-02-26T20:22:22;99412.88;;;10.93;65.09
45323;BME280;31382;50.200;8.674;2024-02-26T20:27:23;99421.13;;;10.91;64.81
45323;BME280;31382;50.200;8.674;2024-02-26T20:32:24;99430.19;;;10.83;65.07
45323;BME280;31382;50.200;8.674;2024-02-26T20:37:28;99432.50;;;10.86;65.38
45323;BME280;31382;50.200;8.674;2024-02-26T20:42:29;99449.47;;;10.87;65.05
45323;BME280;31382;50.200;8.674;2024-02-26T20:47:31;99453.97;;;10.80;65.12
45323;BME280;31382;50.200;8.674;2024-02-26T20:52:33;99464.09;;;10.78;65.35
45323;BME280;31382;50.200;8.674;2024-02-26T20:57:35;99477.50;;;10.71;65.17
45323;BME280;31382;50.200;8.674;2024-02-26T21:02:37;99479.75;;;10.67;65.66
45323;BME280;31382;50.200;8.674;2024-02-26T21:07:41;99494.44;;;10.71;65.29
45323;BME280;31382;50.200;8.674;2024-02-26T21:12:48;99509.16;;;10.76;65.42
45323;BME280;31382;50.200;8.674;2024-02-26T21:17:50;99514.78;;;10.81;64.95
45323;BME280;31382;50.200;8.674;2024-02-26T21:22:51;99512.66;;;10.76;65.62
45323;BME280;31382;50.200;8.674;2024-02-26T21:27:53;99518.03;;;10.76;65.71
45323;BME280;31382;50.200;8.674;2024-02-26T21:32:55;99531.72;;;10.75;65.31
45323;BME280;31382;50.200;8.674;2024-02-26T21:37:56;99539.16;;;10.79;65.51
45323;BME280;31382;50.200;8.674;2024-02-26T21:42:58;99546.22;;;10.80;65.29
45323;BME280;31382;50.200;8.674;2024-02-26T21:47:59;99555.50;;;10.78;65.26
45323;BME280;31382;50.200;8.674;2024-02-26T21:53:01;99568.28;;;10.76;65.48
45323;BME280;31382;50.200;8.674;2024-02-26T21:58:02;99571.63;;;10.78;65.79
45323;BME280;31382;50.200;8.674;2024-02-26T22:03:04;99575.56;;;10.82;65.41
45323;BME280;31382;50.200;8.674;2024-02-26T22:08:06;99583.41;;;10.77;66.04
45323;BME280;31382;50.200;8.674;2024-02-26T22:13:08;99577.59;;;10.73;65.51
45323;BME280;31382;50.200;8.674;2024-02-26T22:18:09;99590.41;;;10.71;66.07
45323;BME280;31382;50.200;8.674;2024-02-26T22:23:11;99590.84;;;10.75;66.22
45323;BME280;31382;50.200;8.674;2024-02-26T22:28:12;99587.94;;;10.76;65.88
45323;BME280;31382;50.200;8.674;2024-02-26T22:33:14;99601.59;;;10.75;66.10
45323;BME280;31382;50.200;8.674;2024-02-26T22:38:15;99590.41;;;10.71;66.19
45323;BME280;31382;50.200;8.674;2024-02-26T22:43:18;99597.56;;;10.64;66.14
45323;BME280;31382;50.200;8.674;2024-02-26T22:48:19;99608.16;;;10.72;66.16
45323;BME280;31382;50.200;8.674;2024-02-26T22:53:24;99626.13;;;10.65;66.28
45323;BME280;31382;50.200;8.674;2024-02-26T22:58:25;99623.19;;;10.60;66.65
45323;BME280;31382;50.200;8.674;2024-02-26T23:03:28;99628.97;;;10.57;66.90
45323;BME280;31382;50.200;8.674;2024-02-26T23:08:29;99640.53;;;10.57;66.55
45323;BME280;31382;50.200;8.674;2024-02-26T23:13:31;99644.63;;;10.53;67.11
45323;BME280;31382;50.200;8.674;2024-02-26T23:18:32;99646.03;;;10.49;66.81
45323;BME280;31382;50.200;8.674;2024-02-26T23:23:34;99651.22;;;10.50;66.91
45323;BME280;31382;50.200;8.674;2024-02-26T23:28:36;99658.84;;;10.47;67.31
45323;BME280;31382;50.200;8.674;2024-02-26T23:33:38;99679.28;;;10.48;66.84
45323;BME280;31382;50.200;8.674;2024-02-26T23:38:39;99680.13;;;10.48;67.39
45323;BME280;31382;50.200;8.674;2024-02-26T23:43:41;99681.53;;;10.44;67.18
45323;BME280;31382;50.200;8.674;2024-02-26T23:48:42;99672.78;;;10.36;67.68
45323;BME280;31382;50.200;8.674;2024-02-26T23:53:45;99685.38;;;10.35;67.71
45323;BME280;31382;50.200;8.674;2024-02-26T23:58:47;99678.06;;;10.29;67.59
